MST,Max TemperatureF,Mean TemperatureF,Min TemperatureF,Max Dew PointF,MeanDew PointF,Min DewpointF,Max Humidity, Mean Humidity, Min Humidity, Max Sea Level PressureIn, Mean Sea Level PressureIn, Min Sea Level PressureIn, Max VisibilityMiles, Mean VisibilityMiles, Min VisibilityMiles, Max Wind SpeedMPH, Mean Wind SpeedMPH, Max Gust SpeedMPH,PrecipitationIn, CloudCover, Events, WindDirDegrees
2012-12-1,54,41,27,35,31,26,92,71,50,29.91,29.85,29.76,10,10,10,13,3,16,0.00,2,,133
2012-12-2,59,45,31,33,29,27,82,57,31,29.82,29.58,29.37,10,10,10,31,12,38,0.00,2,,155
2012-12-3,48,38,27,27,19,12,69,47,25,30.25,30.03,29.71,10,10,10,23,5,26,0.00,0,,154
2012-12-4,46,34,21,23,20,17,84,62,40,30.30,30.20,30.06,10,10,10,10,3,12,0.00,1,,180
2012-12-5,58,42,26,32,27,21,81,58,35,30.03,29.90,29.79,10,10,7,23,5,30,0.00,2,,233
2012-12-6,44,36,27,30,23,19,92,68,43,30.04,29.93,29.83,10,8,1,22,8,26,T,5,Snow,313
2012-12-7,38,30,22,27,23,17,96,74,52,30.03,29.95,29.78,10,10,10,18,7,23,0.00,3,,123
2012-12-8,34,24,13,23,16,4,88,68,47,30.25,29.89,29.68,10,7,1,33,15,44,T,6,Snow,329
2012-12-9,20,12,4,8,5,1,91,57,23,30.53,30.35,29.96,20,10,10,18,6,24,0.00,2,,151
2012-12-10,22,17,11,18,14,8,100,84,67,30.15,30.03,29.92,10,5,0,10,3,13,0.09,8,Fog-Snow,128
2012-12-11,25,16,7,18,12,5,92,85,77,30.12,29.91,29.75,10,7,0,12,2,13,T,5,Fog-Snow,308
2012-12-12,44,30,15,28,21,14,92,76,59,29.97,29.76,29.64,10,10,10,14,4,16,0.00,1,,321
2012-12-13,35,22,9,22,13,7,100,81,61,30.06,29.96,29.89,10,7,1,8,1,10,0.00,3,,333
2012-12-14,37,24,11,24,18,9,96,76,56,29.92,29.79,29.66,10,10,10,10,2,12,0.00,2,,286
2012-12-15,33,27,21,29,25,21,92,84,75,29.87,29.78,29.64,10,8,4,7,2,8,T,8,,143
2012-12-16,33,25,16,27,22,15,100,86,72,29.87,29.74,29.62,10,5,0,13,5,15,0.00,5,Fog,134
2012-12-17,35,25,15,27,18,13,96,76,56,29.75,29.60,29.46,10,10,9,15,4,18,T,2,,3
2012-12-18,33,21,9,17,9,2,96,65,33,29.98,29.84,29.69,10,10,10,20,5,24,0.00,0,,322
2012-12-19,26,12,-3,6,2,-5,87,64,40,30.37,30.21,29.98,10,10,10,9,3,24,0.00,0,,135
2012-12-20,29,15,0,18,3,-4,87,57,26,30.42,30.34,30.26,20,10,10,14,2,17,0.00,0,,143
2012-12-21,34,19,4,28,8,1,83,64,45,30.29,30.20,30.11,20,10,10,8,2,9,0.00,0,,303
2012-12-22,34,18,2,13,7,0,91,67,43,30.23,30.07,29.90,10,10,10,9,2,10,0.00,0,,308
2012-12-23,39,28,16,15,12,9,74,54,34,30.04,29.97,29.86,10,10,10,15,4,,0.00,1,,152
2012-12-24,22,15,7,13,6,1,88,77,66,30.40,30.08,29.86,10,7,1,25,11,29,T,6,Snow,307
2012-12-25,14,4,-7,4,-1,-9,95,80,64,30.51,30.33,30.06,10,8,2,8,3,12,T,4,Snow,129
2012-12-26,20,10,-1,16,11,-3,92,83,73,30.16,29.86,29.68,10,5,1,12,2,13,0.04,8,Snow,312
2012-12-27,21,11,1,14,8,-2,95,84,73,30.18,29.99,29.72,10,8,2,7,2,23,T,6,Snow,140
2012-12-28,19,6,-7,11,2,-11,95,81,67,30.38,30.25,30.07,10,8,5,6,1,8,T,3,,75
2012-12-29,9,-1,-11,2,-5,-15,95,84,73,30.43,30.29,30.13,10,9,2,7,1,8,0.00,0,,85
2012-12-30,16,4,-9,5,-3,-10,95,77,59,30.34,30.29,30.21,10,9,6,8,1,8,0.00,0,,136
2012-12-31,10,-2,-14,3,-7,-20,91,80,69,30.42,30.31,30.07,10,9,2,7,1,7,T,3,Snow,160